Aviation Digital Data Service (ADDS)

Output produced by METARs form (1827 UTC 16 August 2018)
found at http://www.aviationweather.gov/adds/metars/
 
FDMS 161600Z 03007KT CAVOK 21/14 Q1018 NOSIG